Time;durP1;ratioP1;P1;durP2;ratioP2;P2;SDS_P1;SDS_P2;PMS_P1;PMS_P2;Temp;Humidity;BMP_temperature;BMP_pressure;BME280_temperature;BME280_humidity;BME280_pressure;Samples;Min_cycle;Max_cycle;Signal;HPM_P1;HPM_P2
2021/08/20 00:01:04;;;;;;;8.35;3.35;;;;;;;17.30;79.18;97932.59;5072426;28;20036;-82
2021/08/20 00:03:29;;;;;;;5.93;3.55;;;;;;;17.37;78.92;97929.28;5054871;28;20028;-82
2021/08/20 00:05:55;;;;;;;9.98;3.95;;;;;;;17.32;79.51;97930.28;5074111;28;20100;-86
2021/08/20 00:08:20;;;;;;;8.68;3.47;;;;;;;17.28;79.70;97936.88;5074164;28;20024;-84
2021/08/20 00:10:45;;;;;;;5.55;3.85;;;;;;;17.22;79.64;97935.47;5071696;28;20028;-82
2021/08/20 00:13:11;;;;;;;4.78;3.17;;;;;;;17.09;80.31;97924.34;5071800;28;20541;-83
2021/08/20 00:15:36;;;;;;;7.72;3.40;;;;;;;17.03;80.99;97931.22;5071417;28;20075;-83
2021/08/20 00:18:02;;;;;;;6.18;3.67;;;;;;;17.03;81.11;97930.41;5072112;28;20500;-84
2021/08/20 00:20:27;;;;;;;7.15;3.40;;;;;;;16.99;81.33;97930.28;5071904;28;20112;-80
2021/08/20 00:22:53;;;;;;;7.70;4.28;;;;;;;16.96;80.78;97919.09;5072011;28;20025;-83
2021/08/20 00:25:18;;;;;;;9.80;4.10;;;;;;;17.20;79.85;97935.78;5075741;28;20056;-82
2021/08/20 00:27:44;;;;;;;6.82;3.35;;;;;;;17.14;80.07;97921.38;5071783;28;20542;-83
2021/08/20 00:30:10;;;;;;;4.80;3.00;;;;;;;17.28;79.73;97936.88;5053980;28;20028;-82
2021/08/20 00:32:37;;;;;;;6.50;3.55;;;;;;;17.16;80.36;97936.81;5071818;28;20039;-83
2021/08/20 00:35:03;;;;;;;4.70;3.33;;;;;;;17.01;81.61;97940.97;5053724;28;20496;-82
2021/08/20 00:37:29;;;;;;;6.90;3.33;;;;;;;17.08;81.36;97933.78;5072032;28;20792;-84
2021/08/20 00:39:56;;;;;;;5.38;4.07;;;;;;;17.00;81.09;97931.91;5071953;28;20024;-84
2021/08/20 00:42:22;;;;;;;9.18;3.50;;;;;;;16.75;82.56;97929.34;5072342;28;20025;-83
2021/08/20 00:44:47;;;;;;;5.78;3.50;;;;;;;16.79;82.47;97933.84;5071694;28;20035;-83
2021/08/20 00:47:13;;;;;;;5.35;3.50;;;;;;;16.80;82.12;97931.88;5071502;28;20025;-82
2021/08/20 00:49:38;;;;;;;9.75;4.45;;;;;;;16.67;82.69;97932.94;5071171;28;20056;-81
2021/08/20 00:52:04;;;;;;;10.75;3.40;;;;;;;16.50;83.42;97931.09;5071806;28;20385;-81
2021/08/20 00:54:30;;;;;;;12.18;5.75;;;;;;;16.48;83.37;97944.41;5053883;28;20047;-82
2021/08/20 00:56:55;;;;;;;6.25;3.38;;;;;;;16.34;83.44;97936.38;5071729;28;20033;-83
2021/08/20 00:59:25;;;;;;;10.93;3.72;;;;;;;16.32;83.63;97913.81;5071727;28;20028;-80
2021/08/20 01:01:51;;;;;;;9.85;3.30;;;;;;;16.17;85.02;97930.94;5054036;28;20366;-84
2021/08/20 01:04:16;;;;;;;6.75;3.05;;;;;;;16.32;84.49;97926.81;5071232;28;20036;-83
2021/08/20 01:06:42;;;;;;;11.27;4.20;;;;;;;16.24;84.99;97927.66;5053424;28;20020;-80
2021/08/20 01:09:08;;;;;;;4.85;3.45;;;;;;;16.26;84.49;97923.41;5070703;28;20068;-83
2021/08/20 01:11:34;;;;;;;4.53;3.17;;;;;;;16.31;84.33;97928.78;5053791;28;20033;-86
2021/08/20 01:14:00;;;;;;;6.07;3.20;;;;;;;16.41;84.18;97928.34;5053722;28;20031;-83
2021/08/20 01:16:26;;;;;;;5.82;3.83;;;;;;;16.33;84.03;97912.66;5071489;28;20020;-83
2021/08/20 01:18:51;;;;;;;7.78;3.58;;;;;;;16.25;84.83;97923.75;5071264;28;20473;-84
2021/08/20 01:21:22;;;;;;;4.53;2.95;;;;;;;16.27;84.74;97924.22;5071711;28;20021;-86
2021/08/20 01:23:59;;;;;;;9.07;3.97;;;;;;;16.34;84.26;97919.81;5071958;28;20020;-84
2021/08/20 01:26:29;;;;;;;5.10;3.17;;;;;;;16.28;84.73;97914.81;5071902;28;20120;-83
2021/08/20 01:28:57;;;;;;;3.97;3.13;;;;;;;16.25;85.00;97923.75;5071288;28;20064;-85
2021/08/20 01:31:22;;;;;;;8.98;4.03;;;;;;;16.21;85.31;97920.03;5072137;28;20036;-84
2021/08/20 01:33:48;;;;;;;8.68;3.65;;;;;;;16.10;85.45;97913.28;5071908;28;20024;-85
2021/08/20 01:36:14;;;;;;;9.48;3.55;;;;;;;16.17;85.32;97924.59;5071356;28;20044;-81
2021/08/20 01:38:51;;;;;;;8.55;4.35;;;;;;;16.27;84.82;97929.75;5053728;28;20025;-84
2021/08/20 01:41:17;;;;;;;4.00;3.00;;;;;;;16.37;84.07;97923.84;5081259;28;20417;-83
2021/08/20 01:43:42;;;;;;;10.25;3.45;;;;;;;16.27;84.83;97930.56;5073698;28;20033;-83
2021/08/20 01:46:08;;;;;;;4.72;3.22;;;;;;;16.17;85.46;97925.41;5052661;28;20032;-82
2021/08/20 01:48:33;;;;;;;5.55;3.63;;;;;;;16.13;85.72;97923.66;5070909;28;20044;-81
2021/08/20 01:50:59;;;;;;;8.30;3.97;;;;;;;16.23;85.70;97918.56;5070655;28;20047;-81
2021/08/20 01:53:24;;;;;;;6.20;3.55;;;;;;;16.12;86.17;97911.00;5070254;28;20578;-83
2021/08/20 01:55:50;;;;;;;4.93;3.00;;;;;;;16.21;86.05;97923.63;5071346;28;20504;-83
2021/08/20 01:58:16;;;;;;;7.10;3.42;;;;;;;15.96;87.29;97914.31;5070947;28;20477;-85
2021/08/20 02:00:42;;;;;;;6.10;3.10;;;;;;;15.92;86.99;97902.31;5056369;28;20393;-85
2021/08/20 02:03:10;;;;;;;5.38;3.30;;;;;;;16.19;86.69;97914.88;5072025;28;20385;-83
2021/08/20 02:05:35;;;;;;;7.00;3.80;;;;;;;16.22;85.78;97916.16;5070639;28;20029;-82
2021/08/20 02:08:01;;;;;;;10.13;4.47;;;;;;;16.18;86.05;97921.53;5070159;28;20029;-83
2021/08/20 02:10:26;;;;;;;4.38;3.28;;;;;;;16.25;85.35;97918.25;5069891;28;20115;-81
2021/08/20 02:12:52;;;;;;;7.53;3.03;;;;;;;16.14;85.87;97915.03;5052455;28;20024;-83
2021/08/20 02:15:18;;;;;;;6.45;2.90;;;;;;;16.18;85.91;97913.25;5069974;28;20389;-82
2021/08/20 02:17:43;;;;;;;4.65;3.50;;;;;;;16.23;84.91;97909.47;5070298;28;20032;-84
2021/08/20 02:20:09;;;;;;;4.75;3.00;;;;;;;16.19;85.09;97930.63;5069681;28;20028;-81
2021/08/20 02:22:34;;;;;;;5.78;3.50;;;;;;;16.16;85.39;97923.81;5074198;28;20024;-82
2021/08/20 02:25:00;;;;;;;6.88;3.42;;;;;;;15.94;86.48;97913.81;5074409;28;20107;-84
2021/08/20 02:27:25;;;;;;;6.68;3.30;;;;;;;16.01;86.81;97921.59;5074531;28;20108;-84
2021/08/20 02:29:51;;;;;;;4.60;3.22;;;;;;;16.11;86.29;97917.66;5074438;28;20020;-82
2021/08/20 02:32:16;;;;;;;7.97;5.28;;;;;;;15.96;86.68;97924.53;5074249;28;20514;-82
2021/08/20 02:34:41;;;;;;;9.82;3.35;;;;;;;15.76;87.69;97926.06;5073780;28;20024;-82
2021/08/20 02:37:07;;;;;;;8.23;3.00;;;;;;;15.84;87.20;97924.44;5074809;28;20067;-83
2021/08/20 02:39:33;;;;;;;4.95;3.08;;;;;;;15.82;87.08;97919.22;5056604;28;20036;-82
2021/08/20 02:41:59;;;;;;;6.60;3.45;;;;;;;15.80;86.94;97916.00;5074036;28;20453;-82
2021/08/20 02:44:25;;;;;;;3.60;2.78;;;;;;;15.77;87.18;97916.66;5056243;28;20025;-83
2021/08/20 02:46:50;;;;;;;4.93;2.63;;;;;;;15.77;87.32;97922.19;5055794;28;20032;-84
2021/08/20 02:49:16;;;;;;;5.13;3.47;;;;;;;15.60;87.24;97922.22;5073362;28;20093;-82
2021/08/20 02:51:41;;;;;;;6.60;2.78;;;;;;;15.57;87.41;97922.88;5073311;28;20039;-86
2021/08/20 02:54:06;;;;;;;3.70;2.45;;;;;;;15.58;87.09;97913.47;5074130;28;20043;-83
2021/08/20 02:56:32;;;;;;;7.20;3.03;;;;;;;15.47;87.58;97912.19;5073763;28;20025;-83
2021/08/20 02:58:57;;;;;;;5.70;3.67;;;;;;;15.54;87.30;97921.59;5073573;28;20392;-83
2021/08/20 03:01:23;;;;;;;6.28;2.95;;;;;;;15.45;87.47;97914.44;5073806;28;20103;-82
2021/08/20 03:03:48;;;;;;;5.10;3.13;;;;;;;15.37;87.54;97912.53;5073718;28;20089;-81
2021/08/20 03:06:15;;;;;;;4.70;3.42;;;;;;;15.50;87.21;97928.09;5073733;28;20435;-84
2021/08/20 03:08:40;;;;;;;5.55;3.15;;;;;;;15.48;87.48;97916.59;5073871;28;20035;-82
2021/08/20 03:11:06;;;;;;;4.88;3.08;;;;;;;15.60;86.66;97919.47;5073212;28;20033;-81
2021/08/20 03:13:31;;;;;;;4.00;3.30;;;;;;;15.63;86.32;97915.25;5073289;28;20082;-85
2021/08/20 03:15:57;;;;;;;4.78;2.78;;;;;;;15.57;87.05;97930.38;5073372;28;20025;-81
2021/08/20 03:18:22;;;;;;;5.90;3.45;;;;;;;15.48;87.32;97922.09;5073202;28;20052;-80
2021/08/20 03:20:48;;;;;;;6.25;2.97;;;;;;;15.43;87.50;97930.53;5072742;28;20036;-82
2021/08/20 03:23:14;;;;;;;4.82;3.05;;;;;;;15.49;87.12;97926.47;5073178;28;20422;-81
2021/08/20 03:25:40;;;;;;;5.55;3.08;;;;;;;15.62;86.61;97925.47;5073552;28;20020;-82
2021/08/20 03:28:07;;;;;;;6.65;3.60;;;;;;;15.51;87.14;97932.47;5055522;28;20035;-86
2021/08/20 03:30:32;;;;;;;5.32;3.45;;;;;;;15.42;87.75;97937.16;5073075;28;20067;-81
2021/08/20 03:32:58;;;;;;;7.03;3.72;;;;;;;15.37;87.81;97935.41;5071941;28;20110;-81
2021/08/20 03:35:24;;;;;;;6.70;3.13;;;;;;;15.38;87.68;97945.28;5055284;28;20032;-81
2021/08/20 03:37:49;;;;;;;6.90;3.55;;;;;;;15.52;87.32;97950.63;5072509;28;20032;-82
2021/08/20 03:40:15;;;;;;;5.82;3.38;;;;;;;15.60;87.24;97955.31;5055026;28;20076;-82
2021/08/20 03:42:40;;;;;;;7.13;2.95;;;;;;;15.57;87.55;97968.97;5057004;28;20044;-82
2021/08/20 03:45:06;;;;;;;10.57;3.35;;;;;;;15.53;88.01;97961.34;5075205;28;20021;-80
2021/08/20 03:47:32;;;;;;;6.07;3.17;;;;;;;15.57;87.78;97977.25;5072367;28;20016;-83
2021/08/20 03:49:57;;;;;;;6.40;3.08;;;;;;;15.54;88.02;97968.47;5071736;28;20048;-82
2021/08/20 03:52:23;;;;;;;5.43;3.10;;;;;;;15.50;88.44;97966.72;5073098;28;20037;-83
2021/08/20 03:54:48;;;;;;;5.53;3.97;;;;;;;15.56;88.31;97976.44;5073487;28;20134;-81
2021/08/20 03:57:14;;;;;;;5.53;2.97;;;;;;;15.59;88.48;97970.25;5054252;28;20381;-80
2021/08/20 03:59:40;;;;;;;3.92;3.13;;;;;;;15.73;87.48;97976.38;5072081;28;20070;-80
2021/08/20 04:02:06;;;;;;;7.78;3.65;;;;;;;15.78;87.23;97970.69;5053999;28;20032;-79
2021/08/20 04:04:31;;;;;;;4.53;3.00;;;;;;;15.80;87.49;97976.69;5072068;28;20038;-82
2021/08/20 04:06:57;;;;;;;5.68;3.72;;;;;;;15.82;87.36;97977.16;5071156;28;20026;-81
2021/08/20 04:09:24;;;;;;;7.45;3.58;;;;;;;15.73;87.97;97979.13;5071415;28;20115;-79
2021/08/20 04:11:49;;;;;;;8.90;3.80;;;;;;;15.79;87.16;97975.06;5071586;28;20033;-80
2021/08/20 04:14:15;;;;;;;6.45;3.55;;;;;;;15.84;86.67;97961.09;5071156;28;20032;-82
2021/08/20 04:16:42;;;;;;;10.70;3.60;;;;;;;15.76;86.18;97975.72;5071229;28;20078;-81
2021/08/20 04:19:08;;;;;;;6.82;3.65;;;;;;;15.91;85.68;97968.88;5071511;28;20094;-82
2021/08/20 04:21:33;;;;;;;11.20;3.72;;;;;;;15.94;85.93;97971.75;5071349;28;20481;-80
2021/08/20 04:23:58;;;;;;;7.80;4.07;;;;;;;15.85;86.20;97968.22;5071163;28;20070;-82
2021/08/20 04:26:24;;;;;;;9.88;3.92;;;;;;;15.90;86.19;97965.31;5053517;28;20028;-82
2021/08/20 04:28:51;;;;;;;8.70;3.55;;;;;;;15.83;86.52;97969.69;5071308;28;20027;-78
2021/08/20 04:31:18;;;;;;;7.05;3.65;;;;;;;15.76;87.10;97967.44;5071250;28;20035;-82
2021/08/20 04:33:43;;;;;;;6.15;3.67;;;;;;;15.75;87.37;97973.31;5053398;28;20059;-80
2021/08/20 04:36:08;;;;;;;8.70;3.60;;;;;;;15.85;87.14;97973.75;5070969;28;20127;-83
2021/08/20 04:38:34;;;;;;;6.88;3.63;;;;;;;15.85;87.08;97975.72;5070750;28;20098;-85
2021/08/20 04:40:59;;;;;;;8.88;3.47;;;;;;;15.93;86.90;97972.94;5053257;28;20055;-83
2021/08/20 04:43:25;;;;;;;7.18;4.22;;;;;;;16.03;86.21;97972.56;5070915;28;20108;-82
2021/08/20 04:45:50;;;;;;;6.50;3.88;;;;;;;16.00;86.13;97984.28;5052711;28;20032;-81
2021/08/20 04:48:15;;;;;;;8.20;3.75;;;;;;;16.15;84.99;97982.91;5070757;28;20044;-80
2021/08/20 04:50:41;;;;;;;7.15;3.72;;;;;;;16.35;84.04;97987.69;5071034;28;20028;-81
2021/08/20 04:53:06;;;;;;;7.00;3.83;;;;;;;16.19;84.48;97983.88;5069842;28;20115;-81
2021/08/20 04:55:32;;;;;;;6.65;4.28;;;;;;;16.20;84.13;97979.94;5071375;28;20166;-81
2021/08/20 04:57:57;;;;;;;8.27;3.35;;;;;;;16.20;84.58;97984.66;5053062;28;20554;-82
2021/08/20 05:00:23;;;;;;;5.68;3.80;;;;;;;16.25;84.29;97982.56;5071247;28;20029;-81
2021/08/20 05:02:48;;;;;;;6.40;3.53;;;;;;;16.50;82.89;97989.09;5070929;28;20063;-84
2021/08/20 05:05:14;;;;;;;11.25;3.75;;;;;;;16.58;82.29;97994.59;5071729;28;20024;-82
2021/08/20 05:07:40;;;;;;;5.72;3.30;;;;;;;16.65;81.90;97982.19;5073765;28;20029;-82
2021/08/20 05:10:09;;;;;;;7.70;3.33;;;;;;;16.68;81.70;97990.63;5070718;28;20031;-82
2021/08/20 05:12:39;;;;;;;6.50;3.40;;;;;;;16.89;81.16;97996.19;5052903;28;20031;-81
2021/08/20 05:15:06;;;;;;;5.05;2.97;;;;;;;16.68;82.47;97996.16;5070372;28;20025;-78
2021/08/20 05:17:32;;;;;;;5.22;3.78;;;;;;;16.65;82.43;97991.31;5070390;28;20041;-82
2021/08/20 05:19:57;;;;;;;4.78;3.17;;;;;;;16.64;82.21;97999.91;5070380;28;20070;-77
2021/08/20 05:22:23;;;;;;;3.67;2.58;;;;;;;16.58;82.51;98004.81;5070184;28;20085;-80
2021/08/20 05:24:48;;;;;;;8.35;4.55;;;;;;;16.72;81.71;98007.34;5070729;28;20025;-81
2021/08/20 05:27:14;;;;;;;5.45;3.45;;;;;;;16.81;81.32;98010.88;5070555;28;20013;-77
2021/08/20 05:29:39;;;;;;;5.13;3.40;;;;;;;16.78;81.48;98015.13;5070258;28;20450;-81
2021/08/20 05:32:05;;;;;;;8.23;3.30;;;;;;;16.76;81.11;98009.09;5070612;28;20035;-81
2021/08/20 05:34:30;;;;;;;3.92;2.70;;;;;;;16.84;80.35;98022.06;5072612;28;20028;-84
2021/08/20 05:36:56;;;;;;;6.75;3.03;;;;;;;16.78;80.63;98014.31;5075589;28;20590;-81
2021/08/20 05:39:21;;;;;;;6.70;3.28;;;;;;;16.88;80.54;98016.69;5053122;28;20028;-81
2021/08/20 05:41:47;;;;;;;6.03;2.65;;;;;;;16.94;79.91;98007.88;5070895;28;20400;-81
2021/08/20 05:44:12;;;;;;;6.30;3.90;;;;;;;17.00;78.81;98006.53;5070843;28;20111;-81
2021/08/20 05:46:37;;;;;;;5.85;3.25;;;;;;;16.98;78.40;98014.31;5070278;28;20495;-80
2021/08/20 05:49:05;;;;;;;5.65;3.70;;;;;;;17.26;77.33;98027.66;5052182;28;20405;-81
2021/08/20 05:51:33;;;;;;;7.82;3.75;;;;;;;17.02;78.33;98018.03;5070156;28;20036;-79
2021/08/20 05:53:59;;;;;;;5.00;2.83;;;;;;;17.13;78.72;98029.53;5052447;28;20158;-79
2021/08/20 05:56:24;;;;;;;6.38;3.67;;;;;;;17.15;78.07;98027.22;5074241;28;20486;-79
2021/08/20 05:58:52;;;;;;;7.18;3.45;;;;;;;17.20;77.50;98029.00;5061564;28;20059;-82
2021/08/20 06:01:17;;;;;;;4.32;2.40;;;;;;;17.41;76.81;98022.31;5057367;28;20056;-81
2021/08/20 06:03:43;;;;;;;5.55;2.97;;;;;;;17.48;76.91;98018.97;5055109;28;20052;-81
2021/08/20 06:06:13;;;;;;;5.60;3.22;;;;;;;17.52;76.36;98026.28;5055889;28;20034;-82
2021/08/20 06:08:39;;;;;;;7.82;3.22;;;;;;;17.30;77.31;98028.56;5056297;28;20036;-82
2021/08/20 06:11:04;;;;;;;13.60;3.67;;;;;;;17.23;78.07;98033.84;5056016;28;20039;-82
2021/08/20 06:13:29;;;;;;;4.88;3.65;;;;;;;16.90;79.01;98025.44;5055722;28;20468;-81
2021/08/20 06:15:55;;;;;;;5.10;3.35;;;;;;;16.90;79.46;98020.72;5074471;28;20020;-83
2021/08/20 06:18:21;;;;;;;8.68;3.70;;;;;;;17.41;77.00;98035.31;5056581;28;20454;-82
2021/08/20 06:20:47;;;;;;;7.68;3.58;;;;;;;17.16;77.57;98022.50;5074973;28;20043;-84
2021/08/20 06:23:12;;;;;;;5.18;3.22;;;;;;;17.23;77.01;98022.78;5040207;28;20016;-85
2021/08/20 06:25:38;;;;;;;7.38;5.78;;;;;;;17.94;74.28;98027.06;5060978;28;20029;-81
2021/08/20 06:28:03;;;;;;;7.30;4.28;;;;;;;18.07;73.22;98027.91;5081899;28;20116;-82
2021/08/20 06:30:29;;;;;;;5.88;3.28;;;;;;;18.04;73.22;98032.13;5086021;28;20032;-84
2021/08/20 06:32:54;;;;;;;5.40;3.60;;;;;;;18.12;73.13;98022.94;5062608;28;20393;-83
2021/08/20 06:35:19;;;;;;;6.63;4.43;;;;;;;18.07;73.47;98025.91;5055774;28;20032;-82
2021/08/20 06:37:45;;;;;;;5.75;3.50;;;;;;;18.56;71.18;98024.06;5074166;28;20029;-82
2021/08/20 06:40:11;;;;;;;7.43;3.40;;;;;;;18.62;70.45;98022.69;5073700;28;20476;-82
2021/08/20 06:42:36;;;;;;;7.68;3.17;;;;;;;18.45;70.97;98013.78;5073540;28;20024;-81
2021/08/20 06:45:02;;;;;;;10.85;4.30;;;;;;;18.99;68.49;98017.13;5073443;28;20031;-82
2021/08/20 06:47:27;;;;;;;8.18;4.28;;;;;;;18.85;69.35;98020.25;5055500;28;20021;-80
2021/08/20 06:49:52;;;;;;;7.60;3.90;;;;;;;18.78;69.80;98028.34;5073663;28;20032;-83
2021/08/20 06:52:18;;;;;;;8.07;4.05;;;;;;;18.92;68.53;98011.38;5073713;28;20050;-82
2021/08/20 06:54:43;;;;;;;5.90;3.30;;;;;;;19.10;67.48;98009.94;5073968;28;20020;-81
2021/08/20 06:57:10;;;;;;;7.03;3.75;;;;;;;18.91;67.78;98007.78;5056100;28;20443;-85
2021/08/20 06:59:36;;;;;;;7.38;3.85;;;;;;;19.15;67.07;98010.50;5073718;28;20499;-83
2021/08/20 07:02:02;;;;;;;8.20;3.60;;;;;;;19.18;67.17;98007.03;5073862;28;20029;-86
2021/08/20 07:04:27;;;;;;;8.68;3.60;;;;;;;19.51;65.85;98006.06;5056074;28;20415;-82
2021/08/20 07:06:55;;;;;;;5.72;3.47;;;;;;;19.75;64.92;98000.41;5055921;28;20013;-82
2021/08/20 07:09:22;;;;;;;7.57;3.60;;;;;;;19.94;64.21;98003.31;5075037;28;20032;-80
2021/08/20 07:11:47;;;;;;;4.68;3.30;;;;;;;20.00;63.34;97976.91;5055943;28;20119;-82
2021/08/20 07:14:12;;;;;;;12.73;4.07;;;;;;;20.73;61.82;97995.84;5074120;28;20108;-85
2021/08/20 07:16:38;;;;;;;8.60;4.18;;;;;;;21.10;60.07;97999.94;5073754;28;20387;-83
2021/08/20 07:19:03;;;;;;;9.73;3.97;;;;;;;21.32;58.70;97999.25;5074808;28;20025;-83
2021/08/20 07:21:28;;;;;;;10.55;4.75;;;;;;;22.16;56.79;98010.50;5055752;28;20086;-85
2021/08/20 07:23:54;;;;;;;6.40;3.17;;;;;;;22.08;56.66;98000.41;5074008;28;20032;-82
2021/08/20 07:26:19;;;;;;;5.30;3.53;;;;;;;21.78;58.15;98002.97;5073492;28;20013;-82
2021/08/20 07:28:45;;;;;;;7.88;4.13;;;;;;;22.31;56.35;98006.00;5055736;28;20112;-83
2021/08/20 07:31:10;;;;;;;6.53;4.18;;;;;;;22.53;55.63;98007.97;5072743;28;20028;-82
2021/08/20 07:33:36;;;;;;;8.70;5.63;;;;;;;23.72;53.69;98011.00;5055669;28;20119;-83
2021/08/20 07:36:01;;;;;;;8.07;4.35;;;;;;;23.96;52.06;98016.06;5073762;28;20040;-87
2021/08/20 07:38:27;;;;;;;7.15;4.13;;;;;;;23.80;51.71;98009.13;5074018;28;20099;-84
2021/08/20 07:40:53;;;;;;;5.72;4.18;;;;;;;23.64;52.42;98002.91;5055811;28;20082;-83
2021/08/20 07:43:18;;;;;;;7.20;4.13;;;;;;;23.27;53.26;98012.00;5055255;28;20098;-80
2021/08/20 07:45:43;;;;;;;12.20;4.68;;;;;;;23.36;53.56;98017.28;5072410;28;20034;-81
2021/08/20 07:48:12;;;;;;;7.03;3.97;;;;;;;22.99;55.01;98008.78;5072549;28;20072;-82
2021/08/20 07:50:37;;;;;;;6.00;4.55;;;;;;;22.97;53.67;98008.31;5055179;28;20073;-83
2021/08/20 07:53:02;;;;;;;9.02;5.65;;;;;;;23.20;53.25;98006.28;5054608;28;20024;-82
2021/08/20 07:55:28;;;;;;;9.45;4.93;;;;;;;23.84;52.92;98018.31;5082246;28;20047;-84
2021/08/20 07:57:55;;;;;;;6.28;3.47;;;;;;;25.38;48.30;98018.19;5054691;28;20119;-82
2021/08/20 08:00:23;;;;;;;14.45;4.15;;;;;;;25.59;47.67;98019.53;5072379;28;20025;-81
2021/08/20 08:02:49;;;;;;;13.00;3.67;;;;;;;27.26;43.76;98018.66;5054084;28;20012;-80
2021/08/20 08:05:15;;;;;;;5.65;3.17;;;;;;;28.85;39.64;98013.16;5071817;28;20035;-80
2021/08/20 08:07:40;;;;;;;8.52;2.75;;;;;;;28.45;39.91;98020.25;5053336;28;20532;-80
2021/08/20 08:10:06;;;;;;;4.25;2.80;;;;;;;29.38;38.46;98028.81;5052873;28;20391;-77
2021/08/20 08:12:32;;;;;;;8.55;3.22;;;;;;;30.65;35.62;98030.06;5052422;28;20547;-74
2021/08/20 08:15:01;;;;;;;11.85;2.72;;;;;;;29.59;36.81;98020.13;5070754;28;20048;-83
2021/08/20 08:17:26;;;;;;;4.63;2.38;;;;;;;28.43;39.08;98025.50;5052343;28;20025;-74
2021/08/20 08:19:52;;;;;;;4.50;3.33;;;;;;;30.79;35.54;98027.03;5071048;28;20046;-78
2021/08/20 08:22:21;;;;;;;11.65;5.03;;;;;;;30.04;36.03;98020.84;5052585;28;20020;-73
2021/08/20 08:24:46;;;;;;;5.43;3.30;;;;;;;30.84;34.09;98031.38;5070262;28;20016;-77
2021/08/20 08:27:11;;;;;;;10.23;4.00;;;;;;;30.66;33.40;98034.50;5070963;28;20052;-74
2021/08/20 08:29:37;;;;;;;11.50;3.20;;;;;;;30.73;34.02;98029.53;5052310;28;20115;-76
2021/08/20 08:32:05;;;;;;;6.30;2.97;;;;;;;33.16;30.50;98027.91;5070458;28;20112;-74
2021/08/20 08:34:31;;;;;;;14.15;3.25;;;;;;;31.79;31.70;98033.38;5064381;28;20043;-74
2021/08/20 08:36:56;;;;;;;3.72;3.13;;;;;;;31.34;32.44;98029.34;5069875;28;20029;-74
2021/08/20 08:39:21;;;;;;;6.15;3.20;;;;;;;31.44;31.71;98024.72;5051115;28;20031;-74
2021/08/20 08:41:47;;;;;;;4.82;2.83;;;;;;;32.32;30.67;98025.81;5068283;28;20028;-73
2021/08/20 08:44:12;;;;;;;10.80;3.10;;;;;;;32.53;30.42;98018.88;5069549;28;20029;-75
2021/08/20 08:46:41;;;;;;;5.18;3.30;;;;;;;31.50;31.33;98031.50;5071636;28;20033;-73
2021/08/20 08:49:13;;;;;;;5.68;2.42;;;;;;;33.37;29.34;98027.34;5051504;28;20084;-74
2021/08/20 08:51:40;;;;;;;5.85;2.72;;;;;;;33.33;29.32;98026.66;5069139;28;20082;-74
2021/08/20 08:54:05;;;;;;;5.72;2.28;;;;;;;32.51;29.86;98010.81;5068853;28;20059;-75
2021/08/20 08:56:31;;;;;;;8.05;2.72;;;;;;;31.03;32.03;98013.75;5070550;28;20061;-73
2021/08/20 08:58:56;;;;;;;14.25;3.20;;;;;;;32.09;30.33;98003.25;5068201;28;20028;-76
2021/08/20 09:01:28;;;;;;;3.97;2.80;;;;;;;32.07;30.29;98015.03;5051622;28;20096;-74
2021/08/20 09:04:14;;;;;;;5.68;2.70;;;;;;;33.49;27.71;98018.09;5051851;28;20037;-75
2021/08/20 09:06:44;;;;;;;4.43;2.60;;;;;;;33.42;27.94;98018.31;5051562;28;20032;-75
2021/08/20 09:09:12;;;;;;;3.97;2.50;;;;;;;33.57;27.56;98016.69;5051444;28;20404;-75
2021/08/20 09:11:38;;;;;;;5.90;2.53;;;;;;;33.41;27.31;98019.56;5052091;28;20028;-73
2021/08/20 09:14:05;;;;;;;8.02;2.78;;;;;;;33.71;27.09;98012.66;5052098;28;20025;-73
2021/08/20 09:16:42;;;;;;;2.60;2.03;;;;;;;34.06;27.21;98010.84;5070038;28;20386;-75
2021/08/20 09:19:20;;;;;;;4.45;2.03;;;;;;;31.52;30.04;98003.56;5069840;28;20037;-74
2021/08/20 09:21:57;;;;;;;4.75;2.58;;;;;;;32.48;29.23;98006.03;5070052;28;20123;-72
2021/08/20 09:24:36;;;;;;;6.03;2.08;;;;;;;34.91;25.95;98015.53;5069746;28;20033;-74
2021/08/20 09:27:14;;;;;;;4.25;2.25;;;;;;;29.55;32.55;98008.06;5068799;28;20033;-72
2021/08/20 09:30:07;;;;;;;4.70;2.30;;;;;;;32.12;29.24;98005.22;5069206;28;20032;-73
2021/08/20 09:32:42;;;;;;;2.72;2.10;;;;;;;33.98;26.10;97998.91;5070892;28;20576;-73
2021/08/20 09:35:08;;;;;;;;;;;;;;;30.21;31.08;98000.81;5071224;28;20550;-74
2021/08/20 09:37:33;;;;;;;3.17;1.80;;;;;;;32.91;28.17;97997.31;5073442;28;19920;-76
2021/08/20 09:40:09;;;;;;;4.95;2.97;;;;;;;32.35;28.47;98005.13;5073551;28;20021;-74
2021/08/20 09:42:35;;;;;;;5.82;2.97;;;;;;;31.54;29.52;97999.13;5072582;28;20012;-75
2021/08/20 09:45:30;;;;;;;4.63;2.00;;;;;;;33.28;26.95;98004.50;5072144;28;20029;-77
2021/08/20 09:47:55;;;;;;;5.67;2.30;;;;;;;34.22;24.41;98005.13;5058966;28;20115;-78
2021/08/20 09:50:38;;;;;;;3.60;1.83;;;;;;;32.37;26.41;98005.47;5075513;28;20054;-76
2021/08/20 09:53:14;;;;;;;3.00;1.98;;;;;;;32.04;26.03;97992.47;5075907;28;20020;-75
2021/08/20 09:55:42;;;;;;;3.42;1.67;;;;;;;31.70;26.98;97990.69;5051597;28;20021;-78
2021/08/20 09:58:10;;;;;;;2.45;1.77;;;;;;;31.42;27.37;97993.25;5072274;28;20384;-79
2021/08/20 10:00:36;;;;;;;2.15;1.58;;;;;;;31.83;27.00;97999.31;5072109;28;20046;-78
2021/08/20 10:03:07;;;;;;;3.28;1.90;;;;;;;31.91;26.75;97989.47;5072034;28;20046;-75
2021/08/20 10:05:33;;;;;;;3.17;2.08;;;;;;;31.61;27.68;97987.63;5072334;28;20023;-77
2021/08/20 10:08:00;;;;;;;2.20;1.70;;;;;;;31.55;27.96;97982.91;5072608;28;20020;-78
2021/08/20 10:10:26;;;;;;;5.05;2.30;;;;;;;33.35;25.50;97984.44;5073198;28;20036;-77
2021/08/20 10:12:54;;;;;;;2.58;2.15;;;;;;;31.56;27.96;97979.66;5072583;28;20038;-75
2021/08/20 10:15:20;;;;;;;3.17;2.55;;;;;;;30.51;28.97;97977.41;5072780;28;20166;-77
2021/08/20 10:17:46;;;;;;;2.92;2.08;;;;;;;32.72;26.65;97984.81;5072863;28;20032;-77
2021/08/20 10:20:12;;;;;;;2.60;2.08;;;;;;;34.44;24.87;97991.84;5072656;28;20035;-77
2021/08/20 10:22:38;;;;;;;4.13;2.13;;;;;;;33.26;25.69;97984.31;5072766;28;21040;-77
2021/08/20 10:25:07;;;;;;;3.50;2.20;;;;;;;32.49;26.57;97979.28;5072868;28;20380;-75
2021/08/20 10:27:37;;;;;;;4.32;2.53;;;;;;;34.40;24.67;97983.44;5073042;28;20040;-73
2021/08/20 10:30:07;;;;;;;2.67;2.13;;;;;;;35.53;23.22;97975.22;5072269;28;20186;-76
2021/08/20 10:32:33;;;;;;;3.05;2.20;;;;;;;36.16;22.74;97980.63;5054772;28;20036;-77
2021/08/20 10:34:58;;;;;;;2.67;1.90;;;;;;;35.02;23.69;97983.09;5072871;28;20027;-77
2021/08/20 10:37:26;;;;;;;2.60;1.63;;;;;;;35.34;22.95;97980.75;5054583;28;20099;-75
2021/08/20 10:39:55;;;;;;;5.03;1.92;;;;;;;35.93;23.34;97985.53;5053076;28;20481;-78
2021/08/20 10:42:36;;;;;;;3.25;2.10;;;;;;;34.91;23.82;97977.75;5070879;28;20040;-77
2021/08/20 10:45:10;;;;;;;3.75;2.30;;;;;;;31.76;27.52;97965.53;5049747;28;20025;-79
2021/08/20 10:47:35;;;;;;;3.80;2.05;;;;;;;31.76;27.54;97965.53;5069164;28;20021;-79
2021/08/20 10:50:14;;;;;;;3.33;2.58;;;;;;;31.38;28.32;97958.59;5071104;28;20059;-74
2021/08/20 10:52:43;;;;;;;2.72;2.25;;;;;;;29.04;31.94;97947.00;5072719;28;20020;-79
2021/08/20 10:55:15;;;;;;;2.60;2.00;;;;;;;28.38;33.00;97940.69;5052070;28;20073;-79
2021/08/20 10:57:42;;;;;;;5.25;2.50;;;;;;;28.81;32.74;97946.81;5072892;28;20099;-79
2021/08/20 11:00:32;;;;;;;2.28;1.90;;;;;;;27.65;34.21;97946.31;5054228;28;20029;-78
2021/08/20 11:03:08;;;;;;;3.20;2.50;;;;;;;26.78;36.33;97936.88;5084493;28;20025;-80
2021/08/20 11:05:40;;;;;;;3.47;2.15;;;;;;;27.71;34.48;97933.44;5078908;28;20025;-81
2021/08/20 11:08:27;;;;;;;3.58;1.98;;;;;;;28.26;34.04;97933.53;5054264;28;20043;-80
2021/08/20 11:10:53;;;;;;;4.53;2.38;;;;;;;28.25;33.26;97939.59;5052583;28;20029;-80
2021/08/20 11:13:19;;;;;;;3.42;2.60;;;;;;;27.93;33.95;97934.13;5071004;28;20068;-77
2021/08/20 11:15:46;;;;;;;7.00;2.47;;;;;;;28.10;33.54;97930.41;5070877;28;20101;-79
2021/08/20 11:18:11;;;;;;;3.50;2.17;;;;;;;27.95;33.76;97926.06;5071022;28;20029;-79
2021/08/20 11:20:43;;;;;;;2.67;2.13;;;;;;;28.30;34.33;97931.50;5070769;28;20028;-83
2021/08/20 11:23:11;;;;;;;3.33;2.20;;;;;;;28.14;34.82;97934.00;5071603;28;20031;-79
2021/08/20 11:25:47;;;;;;;3.33;2.35;;;;;;;27.95;34.98;97932.50;5054527;28;20426;-79
2021/08/20 11:28:22;;;;;;;3.67;2.38;;;;;;;28.15;34.59;97932.81;5072186;28;20021;-81
2021/08/20 11:31:00;;;;;;;4.45;2.53;;;;;;;28.07;34.20;97922.81;5054973;28;20032;-80
2021/08/20 11:33:28;;;;;;;5.20;2.30;;;;;;;28.70;33.26;97927.97;5061008;28;20056;-81